Terminal Aerodrome Forecast
Issued by NWS Portland, OR

Home | Current Version | Previous Version | Text Only | Print | Product List | Glossary On
Versions: 1 2 3 4 5 6 7 8 9 10 11 12 13 14 15
000
FTUS46 KPQR 220520
TAFSLE
TAF
KSLE 220520Z 2206/2306 18018G28KT 6SM -RA BR BKN015 OVC025
     FM220700 19025G35KT 4SM RA BR SCT015 OVC025
     FM221500 20008KT P6SM -SHRA SCT015 OVC025
     FM222300 21010KT P6SM SCT025 BKN040=

USA.gov is the U.S. government's official web portal to all federal, state and local government web resources and services.